Hauptseite
METAR-TAF:

METAR-TAF

Flughäfen :

Preston, England

Breite: 53-44-42N, Länge: 2-53-02W, Höhe: 17 m

Beobachtung

Neuester Wetterbericht von vor 21 Minuten, um 15:50 UTC
Wind 10 kt aus Süd
Temperatur 12°C
Luftfeuchtigkeit 82%
Luftdruck 1016 hPa
Sichtweite 10 km oder mehr
Leicht bewölkt in der Höhe von 3900 ft

METAR: EGNO 141550Z 18010KT 9999 FEW039 12/09 Q1016

Zeit: 16:11 (16:11 UTC)

Prognose

Neuester Wetterbericht von vor 2 Stunden und 15 Minuten, um 13:56 UTC
Gültige Prognose vom 14 um 15 UTC bis 14 um 19 UTC
Wind 8 kt aus Süd
Sichtweite 10 km oder mehr
Aufgelockert bewölkt in der Höhe von 3000 ft

TAF: EGNO 141356Z 1415/1419 17008KT 9999 SCT030

Wetterbeobachtungen und Prognosen von mehr als 4000 Flughäfen (METAR und TAF Bericht).

Die verfügbaren Stationen werden durch gelbe und rote Markierungen auf der Karte dargestellt.

Führen Sie die Maus auf sie, um den Namen der Station zu sehen.

Darauf klicken, um die Beobachtung von Wetterbeobachtungen und Prognosen zu sehen.

Um die Karte zu ändern : klicken Sie auf den grünen Tasten mit einem schwarzen Kreuz Zum Vergrößern, auf den grünen Button mit einem Gedankenstrich zu verkleinern, oder auf die grünen Pfeile für benachbarte Karten.


METAR-TAF: